Cadiz, Ohio
Current Conditions -  °F | °C
As of 5:09 AM on Tuesday 27 Jan 2015 (Local Time) from KHLG Reporting Station
Overcast Overcast  
Wind Chill: 10°   Ceiling: 1000
Heat Index: 19°   Visibility: 10mi
Dew Point: 14°   Wind: 7mph
Humidity: 81%   Direction: 340°NNW
Pressure: 29.87"   Gusts: NA
Location:  40.27°N, 81°W
Report Text: KHLG 271009Z AUTO 34006KT 10SM OVC010 M07/M10 A2987 RMK AO2 T10721100
Loading
Personal Weather Stations






























Interactive Weather Map New forecast layout! Learn more

10-Day Weather Forecast

Advertisements
Track Severe Weather on mobile